Time;durP1;ratioP1;P1;durP2;ratioP2;P2;SDS_P1;SDS_P2;PMS_P1;PMS_P2;Temp;Humidity;BMP_temperature;BMP_pressure;BME280_temperature;BME280_humidity;BME280_pressure;Samples;Min_cycle;Max_cycle;Signal;HPM_P1;HPM_P2
2023/07/30 00:00:11;;;;;;;3.78;1.20;;;;;;;;;;5096257;28;20428;-80
2023/07/30 00:02:36;;;;;;;1.75;1.13;;;;;;;;;;5094783;28;20107;-80
2023/07/30 00:05:01;;;;;;;3.25;1.42;;;;;;;;;;5095840;28;20388;-80
2023/07/30 00:07:27;;;;;;;3.22;1.42;;;;;;;;;;5077374;28;20463;-80
2023/07/30 00:09:52;;;;;;;2.80;1.10;;;;;;;;;;5094007;28;20478;-80
2023/07/30 00:12:18;;;;;;;2.78;1.65;;;;;;;;;;5094608;28;20035;-80
2023/07/30 00:14:44;;;;;;;2.00;1.13;;;;;;;;;;5095682;28;20421;-80
2023/07/30 00:17:09;;;;;;;1.27;1.02;;;;;;;;;;5095690;28;20098;-80
2023/07/30 00:19:35;;;;;;;3.67;1.40;;;;;;;;;;5094303;28;20563;-80
2023/07/30 00:22:00;;;;;;;2.03;1.25;;;;;;;;;;5094737;28;20039;-80
2023/07/30 00:24:26;;;;;;;2.35;1.48;;;;;;;;;;5094270;28;20032;-79
2023/07/30 00:26:51;;;;;;;1.63;1.00;;;;;;;;;;5095754;28;20121;-80
2023/07/30 00:29:17;;;;;;;4.15;1.13;;;;;;;;;;5095441;28;20074;-80
2023/07/30 00:31:43;;;;;;;2.97;1.20;;;;;;;;;;5095396;28;20495;-80
2023/07/30 00:34:08;;;;;;;2.33;1.20;;;;;;;;;;5095606;28;20038;-80
2023/07/30 00:36:34;;;;;;;1.85;1.05;;;;;;;;;;5095846;28;20454;-80
2023/07/30 00:38:59;;;;;;;2.42;0.90;;;;;;;;;;5095212;28;20030;-80
2023/07/30 00:41:24;;;;;;;2.45;1.40;;;;;;;;;;5095499;28;20036;-80
2023/07/30 00:43:50;;;;;;;1.77;1.17;;;;;;;;;;5093773;28;20500;-80
2023/07/30 00:46:16;;;;;;;1.10;1.00;;;;;;;;;;5095433;28;20038;-80
2023/07/30 00:48:41;;;;;;;4.13;1.23;;;;;;;;;;5095299;28;20024;-79
2023/07/30 00:51:07;;;;;;;1.63;1.20;;;;;;;;;;5095321;28;20035;-80
2023/07/30 00:53:33;;;;;;;1.95;1.13;;;;;;;;;;5093751;28;20028;-80
2023/07/30 00:55:58;;;;;;;2.10;1.20;;;;;;;;;;5093549;28;20479;-80
2023/07/30 00:58:23;;;;;;;3.08;1.27;;;;;;;;;;5093677;28;20032;-80
2023/07/30 01:00:51;;;;;;;5.90;1.17;;;;;;;;;;5095069;28;20106;-80
2023/07/30 01:03:17;;;;;;;2.65;1.35;;;;;;;;;;5076515;28;20394;-79
2023/07/30 01:05:44;;;;;;;1.35;1.08;;;;;;;;;;5093477;28;20028;-80
2023/07/30 01:08:09;;;;;;;1.98;1.10;;;;;;;;;;5093785;28;20032;-80
2023/07/30 01:10:35;;;;;;;2.45;1.00;;;;;;;;;;5093490;28;20040;-80
2023/07/30 01:13:01;;;;;;;2.67;1.40;;;;;;;;;;5094896;28;20421;-80
2023/07/30 01:15:28;;;;;;;2.58;1.35;;;;;;;;;;5094463;28;20016;-80
2023/07/30 01:17:54;;;;;;;2.42;1.58;;;;;;;;;;5093245;28;20056;-80
2023/07/30 01:20:21;;;;;;;2.30;1.10;;;;;;;;;;5092852;28;20036;-80
2023/07/30 01:22:46;;;;;;;4.63;1.42;;;;;;;;;;5076202;28;20035;-80
2023/07/30 01:25:11;;;;;;;2.70;1.35;;;;;;;;;;5094566;28;20091;-80
2023/07/30 01:27:41;;;;;;;2.72;1.38;;;;;;;;;;5093314;28;20489;-80
2023/07/30 01:30:09;;;;;;;4.47;1.88;;;;;;;;;;5093486;28;20051;-80
2023/07/30 01:32:36;;;;;;;1.55;1.15;;;;;;;;;;5094271;28;20028;-80
2023/07/30 01:35:02;;;;;;;3.50;1.23;;;;;;;;;;5094496;28;20020;-80
2023/07/30 01:37:28;;;;;;;3.78;1.30;;;;;;;;;;5110727;28;20081;-81
2023/07/30 01:39:53;;;;;;;1.58;0.95;;;;;;;;;;5093078;28;20386;-79
2023/07/30 01:42:19;;;;;;;1.25;1.00;;;;;;;;;;5094374;28;20024;-80
2023/07/30 01:44:44;;;;;;;3.97;1.30;;;;;;;;;;5092847;28;20391;-80
2023/07/30 01:47:09;;;;;;;1.63;1.20;;;;;;;;;;5094296;28;20110;-80
2023/07/30 01:49:35;;;;;;;1.25;1.15;;;;;;;;;;5092723;28;20115;-80
2023/07/30 01:52:00;;;;;;;1.60;1.23;;;;;;;;;;5092678;28;20058;-80
2023/07/30 01:54:26;;;;;;;3.85;1.23;;;;;;;;;;5092996;28;20032;-80
2023/07/30 01:56:53;;;;;;;1.73;1.25;;;;;;;;;;5092700;28;20035;-80
2023/07/30 01:59:18;;;;;;;2.58;1.27;;;;;;;;;;5092871;28;20478;-80
2023/07/30 02:01:44;;;;;;;2.30;1.10;;;;;;;;;;5093843;28;20066;-79
2023/07/30 02:04:09;;;;;;;1.63;1.00;;;;;;;;;;5092397;28;20031;-80
2023/07/30 02:06:34;;;;;;;1.90;1.15;;;;;;;;;;5092542;28;20024;-80
2023/07/30 02:09:00;;;;;;;2.38;1.30;;;;;;;;;;5094198;28;20027;-80
2023/07/30 02:11:25;;;;;;;1.60;1.30;;;;;;;;;;5092763;28;20107;-80
2023/07/30 02:13:51;;;;;;;2.42;1.23;;;;;;;;;;5093985;28;20044;-80
2023/07/30 02:16:16;;;;;;;1.10;0.95;;;;;;;;;;5092592;28;20071;-80
2023/07/30 02:18:41;;;;;;;3.03;1.33;;;;;;;;;;5092520;28;20056;-80
2023/07/30 02:21:07;;;;;;;1.77;1.20;;;;;;;;;;5093888;28;20046;-80
2023/07/30 02:23:32;;;;;;;1.27;1.10;;;;;;;;;;5093422;28;20031;-80
2023/07/30 02:25:57;;;;;;;2.95;1.20;;;;;;;;;;5092664;28;20474;-80
2023/07/30 02:28:23;;;;;;;3.03;1.05;;;;;;;;;;5092530;28;20028;-80
2023/07/30 02:30:48;;;;;;;2.78;1.40;;;;;;;;;;5093285;28;20032;-81
2023/07/30 02:33:14;;;;;;;3.78;1.80;;;;;;;;;;5091879;28;20032;-80
2023/07/30 02:35:39;;;;;;;1.70;1.15;;;;;;;;;;5093650;28;20028;-79
2023/07/30 02:38:04;;;;;;;1.92;1.25;;;;;;;;;;5093792;28;20486;-80
2023/07/30 02:40:31;;;;;;;2.05;1.30;;;;;;;;;;5093308;28;20107;-80
2023/07/30 02:42:56;;;;;;;2.92;1.17;;;;;;;;;;5092401;28;20428;-79
2023/07/30 02:45:21;;;;;;;2.03;1.30;;;;;;;;;;5093144;28;20115;-79
2023/07/30 02:47:47;;;;;;;3.08;1.27;;;;;;;;;;5092246;28;20043;-78
2023/07/30 02:50:13;;;;;;;2.20;1.10;;;;;;;;;;5093491;28;20467;-79
2023/07/30 02:52:38;;;;;;;2.72;1.33;;;;;;;;;;5093176;28;20107;-79
2023/07/30 02:55:04;;;;;;;2.42;1.13;;;;;;;;;;5092252;28;20378;-79
2023/07/30 02:57:29;;;;;;;1.38;1.08;;;;;;;;;;5091860;28;20024;-79
2023/07/30 02:59:54;;;;;;;2.60;1.33;;;;;;;;;;5092161;28;20027;-79
2023/07/30 03:02:20;;;;;;;2.40;1.30;;;;;;;;;;5093123;28;20045;-79
2023/07/30 03:04:45;;;;;;;2.28;1.40;;;;;;;;;;5091679;28;20039;-79
2023/07/30 03:07:10;;;;;;;1.90;1.10;;;;;;;;;;5091919;28;20028;-79
2023/07/30 03:09:36;;;;;;;2.38;1.17;;;;;;;;;;5091747;28;20391;-80
2023/07/30 03:12:02;;;;;;;1.90;1.23;;;;;;;;;;5091733;28;20036;-81
2023/07/30 03:14:27;;;;;;;2.83;1.17;;;;;;;;;;5091834;28;20024;-81
2023/07/30 03:16:52;;;;;;;4.20;1.55;;;;;;;;;;5092932;28;20028;-81
2023/07/30 03:19:18;;;;;;;2.63;1.30;;;;;;;;;;5091519;28;20087;-81
2023/07/30 03:21:43;;;;;;;5.43;1.23;;;;;;;;;;5092018;28;20498;-80
2023/07/30 03:24:08;;;;;;;2.25;1.13;;;;;;;;;;5092883;28;20039;-80
2023/07/30 03:26:34;;;;;;;3.40;1.30;;;;;;;;;;5091994;28;20027;-80
2023/07/30 03:28:59;;;;;;;2.08;1.42;;;;;;;;;;5091683;28;20041;-80
2023/07/30 03:31:25;;;;;;;2.15;1.23;;;;;;;;;;5093390;28;20032;-80
2023/07/30 03:33:50;;;;;;;1.73;1.20;;;;;;;;;;5092862;28;20024;-80
2023/07/30 03:36:16;;;;;;;2.97;1.25;;;;;;;;;;5092808;28;20494;-80
2023/07/30 03:38:42;;;;;;;3.13;1.30;;;;;;;;;;5091843;28;20066;-80
2023/07/30 03:41:07;;;;;;;3.08;1.60;;;;;;;;;;5074586;28;20020;-80
2023/07/30 03:43:33;;;;;;;3.65;1.50;;;;;;;;;;5093559;28;20065;-80
2023/07/30 03:45:59;;;;;;;3.20;1.20;;;;;;;;;;5096619;28;20031;-79
2023/07/30 03:48:24;;;;;;;2.55;1.30;;;;;;;;;;5096336;28;20410;-79
2023/07/30 03:50:50;;;;;;;2.35;1.05;;;;;;;;;;5078064;28;20028;-79
2023/07/30 03:53:15;;;;;;;3.40;1.20;;;;;;;;;;5095025;28;20028;-79
2023/07/30 03:55:41;;;;;;;2.45;1.42;;;;;;;;;;5111832;28;20024;-79
2023/07/30 03:58:06;;;;;;;2.80;1.25;;;;;;;;;;5094901;28;20024;-79
2023/07/30 04:00:32;;;;;;;3.15;1.27;;;;;;;;;;5095799;28;20092;-79
2023/07/30 04:02:57;;;;;;;3.50;1.50;;;;;;;;;;5094740;28;20036;-79
2023/07/30 04:05:23;;;;;;;2.67;1.38;;;;;;;;;;5094552;28;20564;-80
2023/07/30 04:07:48;;;;;;;3.28;1.65;;;;;;;;;;5094774;28;20123;-80
2023/07/30 04:10:14;;;;;;;2.92;1.58;;;;;;;;;;5094645;28;20520;-80
2023/07/30 04:12:39;;;;;;;4.82;1.48;;;;;;;;;;5095861;28;20032;-80
2023/07/30 04:15:05;;;;;;;3.25;1.50;;;;;;;;;;5096036;28;20731;-80
2023/07/30 04:17:31;;;;;;;2.30;1.40;;;;;;;;;;5094445;28;20036;-79
2023/07/30 04:19:56;;;;;;;2.72;1.30;;;;;;;;;;5094386;28;20048;-80
2023/07/30 04:22:21;;;;;;;3.00;1.45;;;;;;;;;;5094887;28;20024;-81
2023/07/30 04:24:47;;;;;;;3.67;1.40;;;;;;;;;;5095797;28;20056;-80
2023/07/30 04:27:12;;;;;;;3.00;1.20;;;;;;;;;;5095530;28;20064;-80
2023/07/30 04:29:37;;;;;;;4.15;1.70;;;;;;;;;;5094807;28;20034;-79
2023/07/30 04:32:03;;;;;;;2.58;1.25;;;;;;;;;;5077468;28;20470;-79
2023/07/30 04:34:28;;;;;;;2.55;1.40;;;;;;;;;;5078261;28;20028;-79
2023/07/30 04:36:54;;;;;;;2.22;1.23;;;;;;;;;;5094603;28;20379;-80
2023/07/30 04:39:19;;;;;;;3.60;1.52;;;;;;;;;;5095639;28;20024;-79
2023/07/30 04:41:44;;;;;;;3.33;1.50;;;;;;;;;;5094490;28;20035;-80
2023/07/30 04:44:10;;;;;;;1.98;1.23;;;;;;;;;;5095288;28;20115;-80
2023/07/30 04:46:35;;;;;;;3.63;1.60;;;;;;;;;;5095408;28;20028;-80
2023/07/30 04:49:04;;;;;;;3.90;1.75;;;;;;;;;;5093987;28;20028;-80
2023/07/30 04:51:29;;;;;;;2.47;1.30;;;;;;;;;;5094101;28;20036;-79
2023/07/30 04:53:55;;;;;;;2.55;1.50;;;;;;;;;;5093714;28;20027;-80
2023/07/30 04:56:20;;;;;;;3.65;1.50;;;;;;;;;;5076629;28;20142;-79
2023/07/30 04:58:46;;;;;;;2.08;1.35;;;;;;;;;;5094199;28;20028;-80
2023/07/30 05:01:11;;;;;;;4.97;2.00;;;;;;;;;;5093786;28;20378;-80
2023/07/30 05:03:36;;;;;;;4.15;1.40;;;;;;;;;;5076649;28;20032;-80
2023/07/30 05:06:02;;;;;;;4.03;2.05;;;;;;;;;;5093914;28;20032;-80
2023/07/30 05:08:28;;;;;;;4.18;1.10;;;;;;;;;;5076686;28;20036;-80
2023/07/30 05:10:53;;;;;;;4.20;1.85;;;;;;;;;;5095067;28;20032;-80
2023/07/30 05:13:18;;;;;;;4.18;1.85;;;;;;;;;;5093924;28;20032;-80
2023/07/30 05:15:44;;;;;;;2.92;1.33;;;;;;;;;;5094916;28;20099;-80
2023/07/30 05:18:09;;;;;;;2.80;1.55;;;;;;;;;;5076345;28;20502;-80
2023/07/30 05:20:35;;;;;;;3.58;1.50;;;;;;;;;;5093520;28;20036;-80
2023/07/30 05:23:02;;;;;;;4.95;1.90;;;;;;;;;;5093488;28;20106;-80
2023/07/30 05:25:27;;;;;;;4.10;1.45;;;;;;;;;;5093615;28;20059;-80
2023/07/30 05:27:52;;;;;;;4.15;1.75;;;;;;;;;;5093162;28;20052;-80
2023/07/30 05:30:18;;;;;;;3.47;1.55;;;;;;;;;;5093552;28;20036;-80
2023/07/30 05:32:43;;;;;;;3.22;1.45;;;;;;;;;;5094693;28;20048;-80
2023/07/30 05:35:09;;;;;;;3.65;1.70;;;;;;;;;;5093178;28;20083;-79
2023/07/30 05:37:34;;;;;;;5.45;1.80;;;;;;;;;;5076137;28;20035;-80
2023/07/30 05:39:59;;;;;;;4.93;1.42;;;;;;;;;;5094320;28;20509;-80
2023/07/30 05:42:25;;;;;;;6.57;1.92;;;;;;;;;;5094439;28;20024;-80
2023/07/30 05:44:50;;;;;;;2.75;1.60;;;;;;;;;;5094501;28;20064;-80
2023/07/30 05:47:15;;;;;;;3.03;1.80;;;;;;;;;;5093278;28;20415;-80
2023/07/30 05:49:41;;;;;;;5.03;1.60;;;;;;;;;;5092961;28;20027;-80
2023/07/30 05:52:06;;;;;;;2.75;1.60;;;;;;;;;;5093231;28;20028;-80
2023/07/30 05:54:32;;;;;;;4.50;1.60;;;;;;;;;;5093596;28;20020;-80
2023/07/30 05:56:57;;;;;;;4.13;1.65;;;;;;;;;;5094649;28;20028;-80
2023/07/30 05:59:22;;;;;;;4.68;2.08;;;;;;;;;;5093271;28;20040;-80
2023/07/30 06:01:48;;;;;;;5.00;1.80;;;;;;;;;;5092876;28;20428;-80
2023/07/30 06:04:13;;;;;;;3.67;1.85;;;;;;;;;;5093874;28;20502;-80
2023/07/30 06:06:38;;;;;;;5.68;1.85;;;;;;;;;;5092746;28;20114;-80
2023/07/30 06:09:04;;;;;;;5.60;1.90;;;;;;;;;;5093213;28;20043;-80
2023/07/30 06:11:29;;;;;;;4.32;1.60;;;;;;;;;;5092525;28;20411;-80
2023/07/30 06:13:55;;;;;;;6.53;1.80;;;;;;;;;;5092955;28;20031;-80
2023/07/30 06:16:20;;;;;;;3.90;1.75;;;;;;;;;;5094006;28;20028;-79
2023/07/30 06:18:46;;;;;;;6.80;2.00;;;;;;;;;;5075733;28;20135;-80
2023/07/30 06:21:11;;;;;;;6.07;2.40;;;;;;;;;;5092676;28;20043;-80
2023/07/30 06:23:37;;;;;;;8.77;2.50;;;;;;;;;;5075445;28;20028;-80
2023/07/30 06:26:02;;;;;;;4.65;2.15;;;;;;;;;;5092629;28;20040;-80
2023/07/30 06:28:27;;;;;;;5.10;2.00;;;;;;;;;;5093174;28;20558;-80
2023/07/30 06:30:53;;;;;;;4.80;2.03;;;;;;;;;;5075500;28;20039;-80
2023/07/30 06:33:18;;;;;;;5.85;2.55;;;;;;;;;;5092886;28;20032;-80
2023/07/30 06:35:44;;;;;;;5.28;2.20;;;;;;;;;;5093940;28;20386;-79
2023/07/30 06:38:09;;;;;;;7.63;1.92;;;;;;;;;;5093981;28;20036;-80
2023/07/30 06:40:34;;;;;;;4.93;1.80;;;;;;;;;;5092454;28;20031;-80
2023/07/30 06:43:00;;;;;;;5.93;2.20;;;;;;;;;;5092287;28;20028;-80
2023/07/30 06:45:25;;;;;;;6.25;2.15;;;;;;;;;;5094477;28;20417;-80
2023/07/30 06:47:51;;;;;;;3.45;1.90;;;;;;;;;;5093813;28;20024;-80
2023/07/30 06:50:16;;;;;;;6.30;2.03;;;;;;;;;;5094032;28;20107;-79
2023/07/30 06:52:42;;;;;;;6.03;2.22;;;;;;;;;;5075523;28;20394;-79
2023/07/30 06:55:07;;;;;;;5.70;2.08;;;;;;;;;;5092944;28;20475;-79
2023/07/30 06:57:32;;;;;;;3.75;1.83;;;;;;;;;;5092057;28;20024;-80
2023/07/30 06:59:58;;;;;;;6.63;2.33;;;;;;;;;;5075079;28;20126;-78
2023/07/30 07:02:24;;;;;;;5.60;2.22;;;;;;;;;;5093867;28;20407;-80
2023/07/30 07:04:50;;;;;;;5.72;2.20;;;;;;;;;;5092206;28;20094;-79
2023/07/30 07:07:15;;;;;;;3.85;1.90;;;;;;;;;;5092049;28;20032;-80
2023/07/30 07:09:41;;;;;;;3.15;1.73;;;;;;;;;;5093330;28;20085;-80
2023/07/30 07:12:07;;;;;;;5.65;2.13;;;;;;;;;;5092322;28;20036;-80
2023/07/30 07:14:32;;;;;;;5.07;1.83;;;;;;;;;;5093143;28;20107;-80
2023/07/30 07:16:57;;;;;;;4.65;2.08;;;;;;;;;;5091997;28;20032;-80
2023/07/30 07:19:23;;;;;;;6.13;2.20;;;;;;;;;;5095381;28;20487;-80
2023/07/30 07:21:48;;;;;;;5.93;2.30;;;;;;;;;;5095763;28;20032;-80
2023/07/30 07:24:14;;;;;;;6.13;2.42;;;;;;;;;;5095682;28;20107;-80
2023/07/30 07:26:39;;;;;;;4.95;2.00;;;;;;;;;;5097365;28;20032;-80
2023/07/30 07:29:05;;;;;;;6.28;1.98;;;;;;;;;;5095662;28;20389;-80
2023/07/30 07:31:30;;;;;;;6.15;2.13;;;;;;;;;;5095985;28;20052;-80
2023/07/30 07:33:55;;;;;;;3.95;1.90;;;;;;;;;;5095917;28;20058;-80
2023/07/30 07:36:21;;;;;;;6.13;2.10;;;;;;;;;;5097302;28;20036;-80
2023/07/30 07:38:46;;;;;;;6.10;2.10;;;;;;;;;;5096876;28;20129;-79
2023/07/30 07:41:16;;;;;;;3.85;1.95;;;;;;;;;;5095518;28;20027;-80
2023/07/30 07:43:42;;;;;;;7.05;2.47;;;;;;;;;;5095727;28;20473;-80
2023/07/30 07:46:13;;;;;;;5.25;1.88;;;;;;;;;;5078706;28;20044;-80
2023/07/30 07:48:40;;;;;;;5.55;2.08;;;;;;;;;;5096012;28;20032;-79
2023/07/30 07:51:05;;;;;;;5.50;2.08;;;;;;;;;;5095789;28;20394;-80
2023/07/30 07:53:31;;;;;;;5.38;2.03;;;;;;;;;;5078339;28;20039;-80
2023/07/30 07:55:56;;;;;;;4.30;1.90;;;;;;;;;;5095444;28;20062;-80
2023/07/30 07:58:22;;;;;;;3.28;1.83;;;;;;;;;;5095087;28;20035;-79
2023/07/30 08:00:47;;;;;;;3.28;1.90;;;;;;;;;;5078843;28;20032;-79
2023/07/30 08:03:12;;;;;;;3.42;1.88;;;;;;;;;;5095374;28;20047;-79
2023/07/30 08:05:38;;;;;;;6.38;2.33;;;;;;;;;;5096296;28;20032;-80
2023/07/30 08:08:03;;;;;;;4.63;1.77;;;;;;;;;;5095411;28;20032;-79
2023/07/30 08:10:29;;;;;;;5.50;2.05;;;;;;;;;;5061332;28;20081;-80
2023/07/30 08:12:54;;;;;;;5.25;2.08;;;;;;;;;;5095318;28;20107;-80
2023/07/30 08:15:20;;;;;;;4.75;2.00;;;;;;;;;;5094414;28;20107;-80
2023/07/30 08:17:48;;;;;;;7.32;2.65;;;;;;;;;;5094380;28;20433;-80
2023/07/30 08:20:13;;;;;;;4.13;2.05;;;;;;;;;;5094163;28;20450;-81
2023/07/30 08:22:39;;;;;;;6.38;2.17;;;;;;;;;;5095523;28;20063;-81
2023/07/30 08:25:04;;;;;;;5.22;2.00;;;;;;;;;;5095418;28;20426;-81
2023/07/30 08:27:30;;;;;;;5.57;1.80;;;;;;;;;;5094188;28;20038;-80
2023/07/30 08:29:55;;;;;;;6.93;2.00;;;;;;;;;;5094158;28;20032;-80
2023/07/30 08:32:21;;;;;;;6.32;2.63;;;;;;;;;;5094694;28;20028;-81
2023/07/30 08:34:46;;;;;;;5.78;2.35;;;;;;;;;;5094406;28;20024;-80
2023/07/30 08:37:12;;;;;;;6.97;2.50;;;;;;;;;;5077082;28;20058;-80
2023/07/30 08:39:37;;;;;;;5.28;2.00;;;;;;;;;;5093878;28;20082;-80
2023/07/30 08:42:03;;;;;;;6.32;2.15;;;;;;;;;;5076984;28;20054;-81
2023/07/30 08:44:28;;;;;;;4.88;2.38;;;;;;;;;;5094096;28;20115;-81
2023/07/30 08:46:54;;;;;;;5.63;2.30;;;;;;;;;;5095028;28;20059;-81
2023/07/30 08:49:19;;;;;;;3.85;1.80;;;;;;;;;;5093699;28;20119;-82
2023/07/30 08:51:46;;;;;;;5.47;2.00;;;;;;;;;;5095146;28;20119;-81
2023/07/30 08:54:12;;;;;;;6.50;2.42;;;;;;;;;;5095248;28;20075;-82
2023/07/30 08:56:37;;;;;;;6.30;2.08;;;;;;;;;;5093992;28;20038;-82
2023/07/30 08:59:03;;;;;;;4.95;2.10;;;;;;;;;;5093694;28;20024;-81
2023/07/30 09:01:38;;;;;;;4.53;1.67;;;;;;;;;;5076857;28;20036;-81
2023/07/30 09:04:04;;;;;;;7.05;1.88;;;;;;;;;;5093600;28;20035;-81
2023/07/30 09:06:30;;;;;;;5.05;2.00;;;;;;;;;;5093790;28;20032;-81
2023/07/30 09:08:56;;;;;;;5.63;1.95;;;;;;;;;;5093776;28;20046;-81
2023/07/30 09:11:25;;;;;;;5.18;2.17;;;;;;;;;;5076519;28;20107;-81
2023/07/30 09:13:54;;;;;;;7.53;1.83;;;;;;;;;;5093659;28;20027;-81
2023/07/30 09:16:19;;;;;;;5.80;1.83;;;;;;;;;;5094790;28;20103;-81
2023/07/30 09:18:46;;;;;;;5.55;2.00;;;;;;;;;;5093329;28;20076;-81
2023/07/30 09:21:15;;;;;;;6.40;2.38;;;;;;;;;;5093334;28;20431;-81
2023/07/30 09:23:45;;;;;;;4.72;1.58;;;;;;;;;;5076165;28;20028;-81
2023/07/30 09:26:11;;;;;;;3.83;1.83;;;;;;;;;;5093080;28;20028;-81
2023/07/30 09:28:36;;;;;;;5.68;1.95;;;;;;;;;;5076156;28;20467;-81
2023/07/30 09:31:06;;;;;;;3.65;1.60;;;;;;;;;;5076066;28;20032;-81
2023/07/30 09:33:32;;;;;;;4.35;1.80;;;;;;;;;;5092981;28;20045;-81
2023/07/30 09:36:01;;;;;;;5.90;1.88;;;;;;;;;;5092969;28;20012;-81
2023/07/30 09:38:28;;;;;;;4.68;1.73;;;;;;;;;;5092917;28;20035;-81
2023/07/30 09:41:00;;;;;;;4.32;1.75;;;;;;;;;;5093785;28;20028;-81
2023/07/30 09:43:37;;;;;;;6.22;2.00;;;;;;;;;;5093150;28;20020;-81
2023/07/30 09:46:06;;;;;;;4.55;1.90;;;;;;;;;;5093131;28;20436;-81
2023/07/30 09:48:34;;;;;;;4.28;1.77;;;;;;;;;;5092763;28;20407;-81
2023/07/30 09:51:03;;;;;;;5.68;1.90;;;;;;;;;;5075842;28;20035;-80
2023/07/30 09:53:36;;;;;;;4.03;1.60;;;;;;;;;;5093335;28;20610;-80
2023/07/30 09:56:07;;;;;;;6.60;2.13;;;;;;;;;;5075973;28;20106;-81
2023/07/30 09:58:32;;;;;;;3.72;1.70;;;;;;;;;;5092683;28;20035;-81
2023/07/30 10:01:01;;;;;;;4.40;1.58;;;;;;;;;;5092868;28;20028;-80
2023/07/30 10:03:27;;;;;;;5.40;2.28;;;;;;;;;;5092705;28;20067;-81
2023/07/30 10:05:56;;;;;;;4.60;1.85;;;;;;;;;;5109405;28;20052;-81
2023/07/30 10:08:23;;;;;;;3.90;1.65;;;;;;;;;;5093837;28;20035;-81
2023/07/30 10:10:49;;;;;;;4.85;1.90;;;;;;;;;;5094072;28;20040;-81
2023/07/30 10:13:16;;;;;;;5.55;1.83;;;;;;;;;;5075321;28;20039;-81
2023/07/30 10:15:41;;;;;;;3.58;1.65;;;;;;;;;;5092462;28;20073;-81
2023/07/30 10:18:07;;;;;;;5.90;1.67;;;;;;;;;;5092184;28;20028;-81
2023/07/30 10:20:32;;;;;;;5.95;2.03;;;;;;;;;;5092268;28;20101;-81
2023/07/30 10:22:59;;;;;;;4.38;1.67;;;;;;;;;;5094382;28;20089;-81
2023/07/30 10:25:46;;;;;;;3.15;1.55;;;;;;;;;;5104309;28;20025;-81
2023/07/30 10:28:43;;;;;;;3.60;1.50;;;;;;;;;;5094279;28;20024;-81
2023/07/30 10:31:09;;;;;;;3.55;1.58;;;;;;;;;;5077752;28;20068;-81
2023/07/30 10:34:01;;;;;;;4.95;1.75;;;;;;;;;;5092244;28;20119;-82
2023/07/30 10:36:32;;;;;;;3.15;1.40;;;;;;;;;;5087143;28;20044;-81
2023/07/30 10:39:09;;;;;;;3.53;1.48;;;;;;;;;;5075177;28;20024;-82
2023/07/30 10:41:36;;;;;;;4.40;1.35;;;;;;;;;;5075143;28;20028;-81
2023/07/30 10:44:02;;;;;;;5.15;1.58;;;;;;;;;;5092079;28;20032;-81
2023/07/30 10:46:28;;;;;;;4.78;1.35;;;;;;;;;;5092480;28;20032;-81
2023/07/30 10:48:54;;;;;;;4.78;1.40;;;;;;;;;;5093402;28;20028;-81
2023/07/30 10:51:23;;;;;;;3.30;1.20;;;;;;;;;;5091897;28;20039;-81
2023/07/30 10:53:50;;;;;;;2.85;1.30;;;;;;;;;;5094800;28;20304;-81
2023/07/30 10:56:17;;;;;;;2.90;1.38;;;;;;;;;;5096225;28;20028;-81
2023/07/30 10:58:43;;;;;;;4.35;1.50;;;;;;;;;;5096316;28;20111;-81
2023/07/30 11:01:09;;;;;;;3.00;1.40;;;;;;;;;;5096157;28;20036;-81
2023/07/30 11:03:37;;;;;;;2.72;1.33;;;;;;;;;;5095809;28;20039;-81
2023/07/30 11:06:03;;;;;;;7.63;1.58;;;;;;;;;;5096018;28;20020;-81
2023/07/30 11:08:39;;;;;;;3.08;1.33;;;;;;;;;;5096082;28;20035;-81
2023/07/30 11:11:06;;;;;;;4.63;1.10;;;;;;;;;;5096334;28;20020;-81
2023/07/30 11:13:39;;;;;;;2.95;1.48;;;;;;;;;;5097123;28;20028;-81
2023/07/30 11:16:09;;;;;;;2.80;1.30;;;;;;;;;;5095799;28;20016;-80
2023/07/30 11:18:36;;;;;;;2.42;1.30;;;;;;;;;;5095376;28;20413;-81
2023/07/30 11:21:08;;;;;;;4.40;1.75;;;;;;;;;;5079393;28;20062;-80
2023/07/30 11:23:35;;;;;;;6.05;1.80;;;;;;;;;;5095817;28;20482;-81
2023/07/30 11:26:03;;;;;;;5.25;1.30;;;;;;;;;;5097074;28;20061;-81
2023/07/30 11:28:47;;;;;;;3.47;1.10;;;;;;;;;;5095479;28;20107;-81
2023/07/30 11:31:21;;;;;;;5.85;1.40;;;;;;;;;;5078397;28;20503;-81
2023/07/30 11:33:48;;;;;;;3.63;1.38;;;;;;;;;;5096599;28;20031;-81
2023/07/30 11:36:19;;;;;;;2.40;1.30;;;;;;;;;;5095606;28;20023;-81
2023/07/30 11:38:45;;;;;;;3.70;1.17;;;;;;;;;;5097002;28;20032;-81
2023/07/30 11:41:11;;;;;;;2.30;1.20;;;;;;;;;;5095420;28;20024;-81
2023/07/30 11:43:38;;;;;;;2.47;1.00;;;;;;;;;;5095117;28;20081;-80
2023/07/30 11:46:17;;;;;;;2.92;1.27;;;;;;;;;;5095243;28;20089;-81
2023/07/30 11:48:44;;;;;;;3.25;1.27;;;;;;;;;;5095032;28;20024;-81
2023/07/30 11:51:28;;;;;;;4.97;1.10;;;;;;;;;;5078294;28;20028;-81
2023/07/30 11:53:54;;;;;;;3.55;1.17;;;;;;;;;;5095098;28;20028;-81
2023/07/30 11:56:25;;;;;;;3.33;1.10;;;;;;;;;;5096106;28;20028;-81
2023/07/30 11:58:55;;;;;;;3.13;1.48;;;;;;;;;;5096316;28;20020;-81
2023/07/30 12:01:23;;;;;;;5.72;0.95;;;;;;;;;;5096330;28;20031;-81
2023/07/30 12:03:48;;;;;;;2.55;1.08;;;;;;;;;;5094579;28;20032;-81
2023/07/30 12:06:14;;;;;;;2.53;1.15;;;;;;;;;;5096277;28;20035;-81
2023/07/30 12:08:39;;;;;;;2.67;1.08;;;;;;;;;;5096172;28;20032;-81
2023/07/30 12:11:07;;;;;;;2.83;1.17;;;;;;;;;;5094569;28;20451;-81
2023/07/30 12:13:33;;;;;;;2.47;0.95;;;;;;;;;;5095738;28;20024;-81
2023/07/30 12:15:59;;;;;;;1.95;1.10;;;;;;;;;;5094537;28;20020;-81
2023/07/30 12:18:25;;;;;;;2.42;1.33;;;;;;;;;;5095546;28;20433;-81
2023/07/30 12:20:51;;;;;;;1.92;0.95;;;;;;;;;;5077406;28;20501;-82
2023/07/30 12:23:18;;;;;;;2.47;1.15;;;;;;;;;;5094486;28;20506;-82
2023/07/30 12:25:43;;;;;;;3.47;1.08;;;;;;;;;;5094291;28;20486;-80
2023/07/30 12:28:09;;;;;;;2.50;1.10;;;;;;;;;;5095485;28;20031;-80
2023/07/30 12:30:36;;;;;;;2.95;1.00;;;;;;;;;;5095474;28;20035;-81
2023/07/30 12:33:04;;;;;;;1.23;1.00;;;;;;;;;;5093947;28;20028;-81
2023/07/30 12:35:33;;;;;;;4.90;1.30;;;;;;;;;;5095901;28;20024;-81
2023/07/30 12:37:59;;;;;;;2.00;0.95;;;;;;;;;;5095602;28;20047;-81
2023/07/30 12:40:25;;;;;;;2.42;1.10;;;;;;;;;;5094206;28;20034;-81
2023/07/30 12:42:50;;;;;;;2.03;1.17;;;;;;;;;;5077903;28;20458;-80
2023/07/30 12:45:16;;;;;;;3.00;1.00;;;;;;;;;;5094267;28;20056;-81
2023/07/30 12:47:41;;;;;;;2.05;1.20;;;;;;;;;;5095441;28;20035;-81
2023/07/30 12:50:07;;;;;;;1.92;0.82;;;;;;;;;;5077245;28;20483;-81
2023/07/30 12:52:33;;;;;;;2.13;1.08;;;;;;;;;;5093747;28;20024;-81
2023/07/30 12:54:59;;;;;;;2.50;1.00;;;;;;;;;;5094190;28;20028;-81
2023/07/30 12:57:24;;;;;;;1.85;0.90;;;;;;;;;;5076803;28;20024;-81
2023/07/30 12:59:50;;;;;;;1.15;0.80;;;;;;;;;;5076754;28;20035;-81
2023/07/30 13:02:15;;;;;;;1.88;0.93;;;;;;;;;;5094000;28;20024;-81
2023/07/30 13:04:41;;;;;;;1.40;0.88;;;;;;;;;;5093609;28;20368;-81
2023/07/30 13:07:06;;;;;;;2.50;0.95;;;;;;;;;;5093555;28;20031;-81
2023/07/30 13:09:32;;;;;;;1.40;0.98;;;;;;;;;;5093533;28;20028;-81
2023/07/30 13:11:58;;;;;;;1.52;0.98;;;;;;;;;;5093460;28;20032;-81
2023/07/30 13:14:23;;;;;;;3.60;1.35;;;;;;;;;;5093526;28;20490;-81
2023/07/30 13:16:48;;;;;;;1.25;0.60;;;;;;;;;;5092811;28;20036;-81
2023/07/30 13:19:14;;;;;;;3.33;1.10;;;;;;;;;;5093037;28;20048;-81
2023/07/30 13:21:39;;;;;;;1.20;0.80;;;;;;;;;;5093223;28;20039;-81
2023/07/30 13:24:05;;;;;;;2.33;0.93;;;;;;;;;;5094697;28;20115;-81
2023/07/30 13:26:30;;;;;;;1.73;0.80;;;;;;;;;;5093458;28;20111;-81
2023/07/30 13:28:55;;;;;;;1.35;0.70;;;;;;;;;;5093242;28;20475;-81
2023/07/30 13:31:21;;;;;;;1.50;0.80;;;;;;;;;;5093369;28;20111;-81
2023/07/30 13:33:47;;;;;;;1.77;0.95;;;;;;;;;;5093416;28;20028;-81
2023/07/30 13:36:13;;;;;;;2.65;0.90;;;;;;;;;;5093090;28;20039;-81
2023/07/30 13:38:39;;;;;;;0.80;0.65;;;;;;;;;;5094479;28;20036;-81
2023/07/30 13:41:05;;;;;;;0.88;0.80;;;;;;;;;;5092976;28;20115;-81
2023/07/30 13:43:30;;;;;;;1.10;0.65;;;;;;;;;;5094137;28;20501;-80
2023/07/30 13:45:57;;;;;;;2.03;1.10;;;;;;;;;;5075834;28;20027;-80
2023/07/30 13:48:23;;;;;;;2.10;0.68;;;;;;;;;;5093162;28;20095;-81
2023/07/30 13:50:48;;;;;;;2.22;1.02;;;;;;;;;;5092884;28;20421;-80
2023/07/30 13:53:14;;;;;;;1.13;0.70;;;;;;;;;;5094032;28;20028;-80
2023/07/30 13:55:39;;;;;;;2.78;1.10;;;;;;;;;;5094080;28;20047;-80
2023/07/30 13:58:05;;;;;;;2.03;0.93;;;;;;;;;;5093862;28;20107;-80
2023/07/30 14:00:30;;;;;;;2.33;1.05;;;;;;;;;;5092933;28;20059;-80
2023/07/30 14:02:55;;;;;;;2.63;0.80;;;;;;;;;;5093921;28;20149;-80
2023/07/30 14:05:21;;;;;;;3.40;0.90;;;;;;;;;;5094200;28;20020;-80
2023/07/30 14:07:47;;;;;;;1.10;0.80;;;;;;;;;;5093283;28;20147;-80
2023/07/30 14:10:12;;;;;;;2.08;1.02;;;;;;;;;;5075646;28;20047;-80
2023/07/30 14:12:37;;;;;;;1.90;1.00;;;;;;;;;;5092681;28;20039;-81
2023/07/30 14:15:03;;;;;;;1.90;0.95;;;;;;;;;;5092437;28;20479;-80
2023/07/30 14:17:28;;;;;;;3.30;0.90;;;;;;;;;;5094044;28;20059;-80
2023/07/30 14:19:55;;;;;;;1.42;0.82;;;;;;;;;;5093856;28;20075;-80
2023/07/30 14:22:21;;;;;;;3.63;0.98;;;;;;;;;;5093990;28;20020;-80
2023/07/30 14:24:46;;;;;;;3.42;1.33;;;;;;;;;;5093917;28;20039;-81
2023/07/30 14:27:12;;;;;;;2.08;0.80;;;;;;;;;;5093773;28;20111;-80
2023/07/30 14:29:37;;;;;;;2.55;0.73;;;;;;;;;;5075532;28;20031;-81
2023/07/30 14:32:03;;;;;;;1.08;0.77;;;;;;;;;;5076091;28;20529;-80
2023/07/30 14:34:28;;;;;;;1.17;0.73;;;;;;;;;;5075657;28;20040;-81
2023/07/30 14:36:53;;;;;;;2.80;0.88;;;;;;;;;;5092629;28;20036;-81